sensor_id;sensor_type;location;lat;lon;timestamp;P1;durP1;ratioP1;P2;durP2;ratioP2
30850;SDS011;17567;48.382;9.102;2023-04-22T00:00:23;5.87;;;5.23;;
30850;SDS011;17567;48.382;9.102;2023-04-22T00:05:24;6.07;;;5.47;;
30850;SDS011;17567;48.382;9.102;2023-04-22T00:10:25;5.77;;;4.83;;
30850;SDS011;17567;48.382;9.102;2023-04-22T00:15:26;4.80;;;4.33;;
30850;SDS011;17567;48.382;9.102;2023-04-22T00:20:27;5.40;;;4.90;;
30850;SDS011;17567;48.382;9.102;2023-04-22T00:25:28;4.43;;;4.03;;
30850;SDS011;17567;48.382;9.102;2023-04-22T00:30:28;4.40;;;4.00;;
30850;SDS011;17567;48.382;9.102;2023-04-22T00:35:29;5.77;;;4.47;;
30850;SDS011;17567;48.382;9.102;2023-04-22T00:40:30;5.93;;;4.30;;
30850;SDS011;17567;48.382;9.102;2023-04-22T00:45:30;4.57;;;4.17;;
30850;SDS011;17567;48.382;9.102;2023-04-22T00:50:31;4.33;;;3.97;;
30850;SDS011;17567;48.382;9.102;2023-04-22T00:55:31;5.43;;;3.90;;
30850;SDS011;17567;48.382;9.102;2023-04-22T01:00:33;4.23;;;3.83;;
30850;SDS011;17567;48.382;9.102;2023-04-22T01:05:33;3.93;;;3.53;;
30850;SDS011;17567;48.382;9.102;2023-04-22T01:10:34;4.30;;;3.90;;
30850;SDS011;17567;48.382;9.102;2023-04-22T01:15:35;4.17;;;3.80;;
30850;SDS011;17567;48.382;9.102;2023-04-22T01:20:36;5.63;;;3.50;;
30850;SDS011;17567;48.382;9.102;2023-04-22T01:25:37;6.13;;;3.57;;
30850;SDS011;17567;48.382;9.102;2023-04-22T01:30:38;5.43;;;3.53;;
30850;SDS011;17567;48.382;9.102;2023-04-22T01:35:38;3.87;;;3.57;;
30850;SDS011;17567;48.382;9.102;2023-04-22T01:40:40;4.20;;;3.80;;
30850;SDS011;17567;48.382;9.102;2023-04-22T01:45:40;4.00;;;3.20;;
30850;SDS011;17567;48.382;9.102;2023-04-22T01:50:41;3.97;;;3.47;;
30850;SDS011;17567;48.382;9.102;2023-04-22T01:55:42;3.40;;;3.10;;
30850;SDS011;17567;48.382;9.102;2023-04-22T02:00:43;3.47;;;3.17;;
30850;SDS011;17567;48.382;9.102;2023-04-22T02:05:43;3.27;;;2.80;;
30850;SDS011;17567;48.382;9.102;2023-04-22T02:10:44;3.23;;;2.67;;
30850;SDS011;17567;48.382;9.102;2023-04-22T02:15:45;5.33;;;3.13;;
30850;SDS011;17567;48.382;9.102;2023-04-22T02:20:45;3.30;;;3.00;;
30850;SDS011;17567;48.382;9.102;2023-04-22T02:25:49;4.97;;;2.83;;
30850;SDS011;17567;48.382;9.102;2023-04-22T02:30:50;2.80;;;2.60;;
30850;SDS011;17567;48.382;9.102;2023-04-22T02:35:51;3.57;;;3.03;;
30850;SDS011;17567;48.382;9.102;2023-04-22T02:40:54;3.53;;;2.83;;
30850;SDS011;17567;48.382;9.102;2023-04-22T02:45:55;3.27;;;2.53;;
30850;SDS011;17567;48.382;9.102;2023-04-22T02:50:56;2.37;;;1.87;;
30850;SDS011;17567;48.382;9.102;2023-04-22T02:55:56;2.20;;;1.90;;
30850;SDS011;17567;48.382;9.102;2023-04-22T03:00:57;2.90;;;1.60;;
30850;SDS011;17567;48.382;9.102;2023-04-22T03:05:57;1.37;;;1.27;;
30850;SDS011;17567;48.382;9.102;2023-04-22T03:10:58;1.90;;;1.17;;
30850;SDS011;17567;48.382;9.102;2023-04-22T03:15:59;1.87;;;1.50;;
30850;SDS011;17567;48.382;9.102;2023-04-22T03:20:59;1.90;;;1.70;;
30850;SDS011;17567;48.382;9.102;2023-04-22T03:26:00;1.63;;;1.20;;
30850;SDS011;17567;48.382;9.102;2023-04-22T03:31:01;1.60;;;1.50;;
30850;SDS011;17567;48.382;9.102;2023-04-22T03:36:01;2.67;;;1.27;;
30850;SDS011;17567;48.382;9.102;2023-04-22T03:41:02;2.37;;;1.50;;
30850;SDS011;17567;48.382;9.102;2023-04-22T03:46:03;2.37;;;2.17;;
30850;SDS011;17567;48.382;9.102;2023-04-22T03:51:04;3.50;;;2.07;;
30850;SDS011;17567;48.382;9.102;2023-04-22T03:56:05;4.00;;;3.60;;
30850;SDS011;17567;48.382;9.102;2023-04-22T04:01:06;3.43;;;3.13;;
30850;SDS011;17567;48.382;9.102;2023-04-22T04:06:07;3.80;;;3.50;;
30850;SDS011;17567;48.382;9.102;2023-04-22T04:11:08;4.47;;;4.07;;
30850;SDS011;17567;48.382;9.102;2023-04-22T04:16:10;5.00;;;4.50;;
30850;SDS011;17567;48.382;9.102;2023-04-22T04:21:10;6.10;;;5.50;;
30850;SDS011;17567;48.382;9.102;2023-04-22T04:26:11;5.40;;;4.90;;
30850;SDS011;17567;48.382;9.102;2023-04-22T04:31:20;4.07;;;3.57;;
30850;SDS011;17567;48.382;9.102;2023-04-22T04:36:20;5.80;;;4.17;;
30850;SDS011;17567;48.382;9.102;2023-04-22T04:41:21;5.70;;;3.07;;
30850;SDS011;17567;48.382;9.102;2023-04-22T04:46:22;3.57;;;3.27;;
30850;SDS011;17567;48.382;9.102;2023-04-22T04:51:23;2.43;;;2.17;;
30850;SDS011;17567;48.382;9.102;2023-04-22T04:56:23;3.13;;;2.53;;
30850;SDS011;17567;48.382;9.102;2023-04-22T05:01:24;2.93;;;2.10;;
30850;SDS011;17567;48.382;9.102;2023-04-22T05:06:24;2.40;;;2.20;;
30850;SDS011;17567;48.382;9.102;2023-04-22T05:11:26;8.07;;;4.20;;
30850;SDS011;17567;48.382;9.102;2023-04-22T05:16:26;5.63;;;3.20;;
30850;SDS011;17567;48.382;9.102;2023-04-22T05:21:27;2.83;;;1.97;;
30850;SDS011;17567;48.382;9.102;2023-04-22T05:26:28;5.33;;;3.70;;
30850;SDS011;17567;48.382;9.102;2023-04-22T05:31:29;4.60;;;2.70;;
30850;SDS011;17567;48.382;9.102;2023-04-22T05:36:29;4.37;;;3.97;;
30850;SDS011;17567;48.382;9.102;2023-04-22T05:41:31;4.67;;;4.17;;
30850;SDS011;17567;48.382;9.102;2023-04-22T05:46:31;4.47;;;4.10;;
30850;SDS011;17567;48.382;9.102;2023-04-22T05:51:32;5.27;;;4.77;;
30850;SDS011;17567;48.382;9.102;2023-04-22T05:56:33;8.10;;;4.60;;
30850;SDS011;17567;48.382;9.102;2023-04-22T06:01:34;5.30;;;4.80;;
30850;SDS011;17567;48.382;9.102;2023-04-22T06:06:36;4.83;;;4.43;;
30850;SDS011;17567;48.382;9.102;2023-04-22T06:11:36;5.63;;;4.20;;
30850;SDS011;17567;48.382;9.102;2023-04-22T06:16:37;6.20;;;4.67;;
30850;SDS011;17567;48.382;9.102;2023-04-22T06:21:41;5.03;;;3.70;;
30850;SDS011;17567;48.382;9.102;2023-04-22T06:26:42;4.40;;;4.00;;
30850;SDS011;17567;48.382;9.102;2023-04-22T06:31:43;4.83;;;4.23;;
30850;SDS011;17567;48.382;9.102;2023-04-22T06:36:44;5.73;;;4.63;;
30850;SDS011;17567;48.382;9.102;2023-04-22T06:41:44;4.90;;;4.33;;
30850;SDS011;17567;48.382;9.102;2023-04-22T06:46:45;6.90;;;4.20;;
30850;SDS011;17567;48.382;9.102;2023-04-22T06:51:46;5.17;;;4.23;;
30850;SDS011;17567;48.382;9.102;2023-04-22T06:56:46;5.33;;;4.63;;
30850;SDS011;17567;48.382;9.102;2023-04-22T07:01:47;5.13;;;3.97;;
30850;SDS011;17567;48.382;9.102;2023-04-22T07:06:48;4.20;;;3.13;;
30850;SDS011;17567;48.382;9.102;2023-04-22T07:11:49;3.67;;;3.30;;
30850;SDS011;17567;48.382;9.102;2023-04-22T07:16:49;3.80;;;3.50;;
30850;SDS011;17567;48.382;9.102;2023-04-22T07:21:50;3.07;;;2.77;;
30850;SDS011;17567;48.382;9.102;2023-04-22T07:26:50;2.53;;;2.33;;
30850;SDS011;17567;48.382;9.102;2023-04-22T07:31:51;4.20;;;2.60;;
30850;SDS011;17567;48.382;9.102;2023-04-22T07:36:52;2.83;;;2.63;;
30850;SDS011;17567;48.382;9.102;2023-04-22T07:41:52;2.83;;;2.63;;
30850;SDS011;17567;48.382;9.102;2023-04-22T07:46:55;2.57;;;2.37;;
30850;SDS011;17567;48.382;9.102;2023-04-22T07:51:55;3.50;;;2.23;;
30850;SDS011;17567;48.382;9.102;2023-04-22T07:56:56;2.83;;;2.60;;
30850;SDS011;17567;48.382;9.102;2023-04-22T08:01:57;3.63;;;2.40;;
30850;SDS011;17567;48.382;9.102;2023-04-22T08:06:57;2.33;;;2.13;;
30850;SDS011;17567;48.382;9.102;2023-04-22T08:11:58;2.20;;;2.00;;
30850;SDS011;17567;48.382;9.102;2023-04-22T08:17:00;3.00;;;2.80;;
30850;SDS011;17567;48.382;9.102;2023-04-22T08:22:00;4.30;;;3.90;;
30850;SDS011;17567;48.382;9.102;2023-04-22T08:27:01;3.93;;;3.50;;
30850;SDS011;17567;48.382;9.102;2023-04-22T08:32:04;2.17;;;1.93;;
30850;SDS011;17567;48.382;9.102;2023-04-22T08:37:06;2.30;;;2.10;;
30850;SDS011;17567;48.382;9.102;2023-04-22T08:42:07;2.93;;;2.67;;
30850;SDS011;17567;48.382;9.102;2023-04-22T08:47:09;4.40;;;2.70;;
30850;SDS011;17567;48.382;9.102;2023-04-22T08:52:11;2.73;;;2.53;;
30850;SDS011;17567;48.382;9.102;2023-04-22T08:57:14;6.20;;;3.37;;
30850;SDS011;17567;48.382;9.102;2023-04-22T09:02:18;2.73;;;2.53;;
30850;SDS011;17567;48.382;9.102;2023-04-22T09:07:21;2.27;;;2.07;;
30850;SDS011;17567;48.382;9.102;2023-04-22T09:12:24;4.93;;;3.97;;
30850;SDS011;17567;48.382;9.102;2023-04-22T09:17:31;3.60;;;3.30;;
30850;SDS011;17567;48.382;9.102;2023-04-22T09:22:37;3.07;;;2.80;;
30850;SDS011;17567;48.382;9.102;2023-04-22T09:27:41;7.70;;;3.10;;
30850;SDS011;17567;48.382;9.102;2023-04-22T09:32:42;5.13;;;4.30;;
30850;SDS011;17567;48.382;9.102;2023-04-22T09:37:52;13.13;;;4.03;;
30850;SDS011;17567;48.382;9.102;2023-04-22T09:42:54;6.13;;;3.20;;
30850;SDS011;17567;48.382;9.102;2023-04-22T09:47:56;3.73;;;3.03;;
30850;SDS011;17567;48.382;9.102;2023-04-22T09:53:01;5.60;;;2.60;;
30850;SDS011;17567;48.382;9.102;2023-04-22T09:58:04;4.50;;;2.60;;
30850;SDS011;17567;48.382;9.102;2023-04-22T10:03:05;3.00;;;2.13;;
30850;SDS011;17567;48.382;9.102;2023-04-22T10:08:08;5.07;;;3.20;;
30850;SDS011;17567;48.382;9.102;2023-04-22T10:13:09;8.57;;;3.97;;
30850;SDS011;17567;48.382;9.102;2023-04-22T10:18:11;4.37;;;2.30;;
30850;SDS011;17567;48.382;9.102;2023-04-22T10:23:14;2.77;;;2.43;;
30850;SDS011;17567;48.382;9.102;2023-04-22T10:28:16;4.93;;;1.60;;
30850;SDS011;17567;48.382;9.102;2023-04-22T10:38:27;5.03;;;2.23;;
30850;SDS011;17567;48.382;9.102;2023-04-22T10:43:44;5.33;;;3.90;;
30850;SDS011;17567;48.382;9.102;2023-04-22T10:48:51;3.03;;;2.20;;
30850;SDS011;17567;48.382;9.102;2023-04-22T10:53:52;5.43;;;1.83;;
30850;SDS011;17567;48.382;9.102;2023-04-22T10:58:54;4.50;;;1.80;;
30850;SDS011;17567;48.382;9.102;2023-04-22T11:04:15;2.33;;;1.60;;
30850;SDS011;17567;48.382;9.102;2023-04-22T11:09:17;3.00;;;1.57;;
30850;SDS011;17567;48.382;9.102;2023-04-22T11:14:18;4.67;;;1.67;;
30850;SDS011;17567;48.382;9.102;2023-04-22T11:19:23;1.60;;;1.50;;
30850;SDS011;17567;48.382;9.102;2023-04-22T11:24:24;3.53;;;2.00;;
30850;SDS011;17567;48.382;9.102;2023-04-22T11:29:25;4.50;;;2.70;;
30850;SDS011;17567;48.382;9.102;2023-04-22T11:34:26;4.53;;;2.30;;
30850;SDS011;17567;48.382;9.102;2023-04-22T11:39:35;4.97;;;1.63;;
30850;SDS011;17567;48.382;9.102;2023-04-22T11:44:37;3.77;;;1.70;;
30850;SDS011;17567;48.382;9.102;2023-04-22T11:49:38;4.53;;;1.60;;
30850;SDS011;17567;48.382;9.102;2023-04-22T11:54:39;3.87;;;1.80;;
30850;SDS011;17567;48.382;9.102;2023-04-22T11:59:40;2.80;;;1.60;;
30850;SDS011;17567;48.382;9.102;2023-04-22T12:04:42;2.93;;;1.83;;
30850;SDS011;17567;48.382;9.102;2023-04-22T12:09:43;3.00;;;1.60;;
30850;SDS011;17567;48.382;9.102;2023-04-22T12:14:44;3.10;;;1.60;;
30850;SDS011;17567;48.382;9.102;2023-04-22T12:19:46;3.00;;;1.50;;
30850;SDS011;17567;48.382;9.102;2023-04-22T12:24:47;3.07;;;1.60;;
30850;SDS011;17567;48.382;9.102;2023-04-22T12:29:51;3.93;;;1.70;;
30850;SDS011;17567;48.382;9.102;2023-04-22T12:34:53;1.57;;;1.40;;
30850;SDS011;17567;48.382;9.102;2023-04-22T12:39:54;4.87;;;1.80;;
30850;SDS011;17567;48.382;9.102;2023-04-22T12:44:55;3.43;;;1.67;;
30850;SDS011;17567;48.382;9.102;2023-04-22T12:49:56;8.10;;;1.83;;
30850;SDS011;17567;48.382;9.102;2023-04-22T12:55:00;3.70;;;1.60;;
30850;SDS011;17567;48.382;9.102;2023-04-22T13:00:01;7.50;;;2.40;;
30850;SDS011;17567;48.382;9.102;2023-04-22T13:05:02;3.93;;;1.70;;
30850;SDS011;17567;48.382;9.102;2023-04-22T13:10:03;2.27;;;1.90;;
30850;SDS011;17567;48.382;9.102;2023-04-22T13:15:05;3.10;;;1.77;;
30850;SDS011;17567;48.382;9.102;2023-04-22T13:20:06;2.37;;;1.70;;
30850;SDS011;17567;48.382;9.102;2023-04-22T13:25:08;4.60;;;1.80;;
30850;SDS011;17567;48.382;9.102;2023-04-22T13:30:09;2.03;;;1.80;;
30850;SDS011;17567;48.382;9.102;2023-04-22T13:35:11;3.63;;;1.67;;
30850;SDS011;17567;48.382;9.102;2023-04-22T13:40:12;2.73;;;1.80;;
30850;SDS011;17567;48.382;9.102;2023-04-22T13:45:13;3.23;;;1.87;;
30850;SDS011;17567;48.382;9.102;2023-04-22T13:50:14;3.10;;;2.07;;
30850;SDS011;17567;48.382;9.102;2023-04-22T13:55:15;3.43;;;2.00;;
30850;SDS011;17567;48.382;9.102;2023-04-22T14:00:16;3.30;;;1.80;;
30850;SDS011;17567;48.382;9.102;2023-04-22T14:05:17;6.57;;;1.87;;
30850;SDS011;17567;48.382;9.102;2023-04-22T14:10:18;5.77;;;1.70;;
30850;SDS011;17567;48.382;9.102;2023-04-22T14:15:21;2.53;;;1.77;;
30850;SDS011;17567;48.382;9.102;2023-04-22T14:20:22;1.73;;;1.63;;
30850;SDS011;17567;48.382;9.102;2023-04-22T14:25:24;1.93;;;1.73;;
30850;SDS011;17567;48.382;9.102;2023-04-22T14:30:25;6.83;;;1.90;;
30850;SDS011;17567;48.382;9.102;2023-04-22T14:35:26;3.93;;;1.93;;
30850;SDS011;17567;48.382;9.102;2023-04-22T14:40:27;2.80;;;1.60;;
30850;SDS011;17567;48.382;9.102;2023-04-22T14:45:29;5.10;;;2.10;;
30850;SDS011;17567;48.382;9.102;2023-04-22T14:50:31;2.20;;;1.60;;
30850;SDS011;17567;48.382;9.102;2023-04-22T14:55:32;3.40;;;2.10;;
30850;SDS011;17567;48.382;9.102;2023-04-22T15:00:35;2.13;;;1.83;;
30850;SDS011;17567;48.382;9.102;2023-04-22T15:05:36;2.40;;;2.00;;
30850;SDS011;17567;48.382;9.102;2023-04-22T15:10:37;4.10;;;1.87;;
30850;SDS011;17567;48.382;9.102;2023-04-22T15:15:37;5.37;;;1.93;;
30850;SDS011;17567;48.382;9.102;2023-04-22T15:20:38;5.27;;;2.03;;
30850;SDS011;17567;48.382;9.102;2023-04-22T15:25:39;1.90;;;1.80;;
30850;SDS011;17567;48.382;9.102;2023-04-22T15:30:40;1.87;;;1.70;;
30850;SDS011;17567;48.382;9.102;2023-04-22T15:35:40;2.00;;;1.80;;
30850;SDS011;17567;48.382;9.102;2023-04-22T15:40:44;3.83;;;1.57;;
30850;SDS011;17567;48.382;9.102;2023-04-22T15:45:45;1.60;;;1.40;;
30850;SDS011;17567;48.382;9.102;2023-04-22T15:50:45;4.37;;;2.07;;
30850;SDS011;17567;48.382;9.102;2023-04-22T15:55:46;2.23;;;1.60;;
30850;SDS011;17567;48.382;9.102;2023-04-22T16:00:46;2.00;;;1.60;;
30850;SDS011;17567;48.382;9.102;2023-04-22T16:05:47;3.67;;;2.47;;
30850;SDS011;17567;48.382;9.102;2023-04-22T16:10:48;7.83;;;2.00;;
30850;SDS011;17567;48.382;9.102;2023-04-22T16:15:48;1.97;;;1.70;;
30850;SDS011;17567;48.382;9.102;2023-04-22T16:20:49;3.40;;;1.90;;
30850;SDS011;17567;48.382;9.102;2023-04-22T16:25:50;3.37;;;2.13;;
30850;SDS011;17567;48.382;9.102;2023-04-22T16:30:50;4.10;;;1.90;;
30850;SDS011;17567;48.382;9.102;2023-04-22T16:35:51;5.63;;;3.73;;
30850;SDS011;17567;48.382;9.102;2023-04-22T16:40:52;7.60;;;5.47;;
30850;SDS011;17567;48.382;9.102;2023-04-22T16:45:53;1.80;;;1.70;;
30850;SDS011;17567;48.382;9.102;2023-04-22T16:50:53;3.20;;;2.17;;
30850;SDS011;17567;48.382;9.102;2023-04-22T16:55:57;3.47;;;1.90;;
30850;SDS011;17567;48.382;9.102;2023-04-22T17:00:57;5.97;;;3.40;;
30850;SDS011;17567;48.382;9.102;2023-04-22T17:06:01;3.30;;;1.70;;
30850;SDS011;17567;48.382;9.102;2023-04-22T17:11:02;2.97;;;1.80;;
30850;SDS011;17567;48.382;9.102;2023-04-22T17:16:03;3.80;;;2.60;;
30850;SDS011;17567;48.382;9.102;2023-04-22T17:21:03;10.47;;;7.90;;
30850;SDS011;17567;48.382;9.102;2023-04-22T17:26:04;7.63;;;6.93;;
30850;SDS011;17567;48.382;9.102;2023-04-22T17:31:05;4.30;;;3.47;;
30850;SDS011;17567;48.382;9.102;2023-04-22T17:36:06;4.63;;;3.97;;
30850;SDS011;17567;48.382;9.102;2023-04-22T17:41:07;2.93;;;2.60;;
30850;SDS011;17567;48.382;9.102;2023-04-22T17:46:07;3.53;;;3.17;;
30850;SDS011;17567;48.382;9.102;2023-04-22T17:51:08;4.03;;;2.53;;
30850;SDS011;17567;48.382;9.102;2023-04-22T17:56:09;9.13;;;3.00;;
30850;SDS011;17567;48.382;9.102;2023-04-22T18:01:09;4.20;;;2.70;;
30850;SDS011;17567;48.382;9.102;2023-04-22T18:06:10;4.30;;;3.10;;
30850;SDS011;17567;48.382;9.102;2023-04-22T18:11:10;9.13;;;3.27;;
30850;SDS011;17567;48.382;9.102;2023-04-22T18:16:11;3.70;;;2.80;;
30850;SDS011;17567;48.382;9.102;2023-04-22T18:21:12;3.47;;;2.60;;
30850;SDS011;17567;48.382;9.102;2023-04-22T18:26:12;3.07;;;2.77;;
30850;SDS011;17567;48.382;9.102;2023-04-22T18:31:16;3.07;;;2.77;;
30850;SDS011;17567;48.382;9.102;2023-04-22T18:36:16;3.67;;;2.93;;
30850;SDS011;17567;48.382;9.102;2023-04-22T18:41:17;2.97;;;2.33;;
30850;SDS011;17567;48.382;9.102;2023-04-22T18:46:18;2.70;;;2.20;;
30850;SDS011;17567;48.382;9.102;2023-04-22T18:51:18;3.60;;;2.10;;
30850;SDS011;17567;48.382;9.102;2023-04-22T18:56:19;3.13;;;2.40;;
30850;SDS011;17567;48.382;9.102;2023-04-22T19:01:20;3.77;;;2.60;;
30850;SDS011;17567;48.382;9.102;2023-04-22T19:06:21;2.93;;;2.37;;
30850;SDS011;17567;48.382;9.102;2023-04-22T19:11:21;2.53;;;2.27;;
30850;SDS011;17567;48.382;9.102;2023-04-22T19:16:22;2.60;;;2.40;;
30850;SDS011;17567;48.382;9.102;2023-04-22T19:21:23;3.10;;;2.73;;
30850;SDS011;17567;48.382;9.102;2023-04-22T19:26:25;4.07;;;3.10;;
30850;SDS011;17567;48.382;9.102;2023-04-22T19:31:27;5.50;;;3.70;;
30850;SDS011;17567;48.382;9.102;2023-04-22T19:36:28;3.80;;;3.50;;
30850;SDS011;17567;48.382;9.102;2023-04-22T19:41:31;5.03;;;3.90;;
30850;SDS011;17567;48.382;9.102;2023-04-22T19:46:33;7.20;;;6.20;;
30850;SDS011;17567;48.382;9.102;2023-04-22T19:51:34;4.73;;;3.57;;
30850;SDS011;17567;48.382;9.102;2023-04-22T19:56:35;3.27;;;2.90;;
30850;SDS011;17567;48.382;9.102;2023-04-22T20:01:36;2.90;;;2.70;;
30850;SDS011;17567;48.382;9.102;2023-04-22T20:06:37;4.30;;;3.77;;
30850;SDS011;17567;48.382;9.102;2023-04-22T20:11:38;4.47;;;3.80;;
30850;SDS011;17567;48.382;9.102;2023-04-22T20:16:39;5.63;;;3.97;;
30850;SDS011;17567;48.382;9.102;2023-04-22T20:21:41;7.03;;;3.73;;
30850;SDS011;17567;48.382;9.102;2023-04-22T20:26:43;3.03;;;2.40;;
30850;SDS011;17567;48.382;9.102;2023-04-22T20:31:44;5.37;;;2.93;;
30850;SDS011;17567;48.382;9.102;2023-04-22T20:36:45;2.63;;;2.33;;
30850;SDS011;17567;48.382;9.102;2023-04-22T20:41:48;6.47;;;3.20;;
30850;SDS011;17567;48.382;9.102;2023-04-22T20:46:53;4.30;;;3.93;;
30850;SDS011;17567;48.382;9.102;2023-04-22T20:51:54;2.93;;;2.70;;
30850;SDS011;17567;48.382;9.102;2023-04-22T20:56:58;2.90;;;2.70;;
30850;SDS011;17567;48.382;9.102;2023-04-22T21:01:59;3.00;;;2.47;;
30850;SDS011;17567;48.382;9.102;2023-04-22T21:07:00;3.60;;;3.30;;
30850;SDS011;17567;48.382;9.102;2023-04-22T21:12:04;4.10;;;3.07;;
30850;SDS011;17567;48.382;9.102;2023-04-22T21:17:26;4.80;;;2.27;;
30850;SDS011;17567;48.382;9.102;2023-04-22T21:22:29;3.33;;;2.43;;
30850;SDS011;17567;48.382;9.102;2023-04-22T21:27:30;4.17;;;2.60;;
30850;SDS011;17567;48.382;9.102;2023-04-22T21:32:31;3.93;;;2.73;;
30850;SDS011;17567;48.382;9.102;2023-04-22T21:37:32;5.57;;;3.23;;
30850;SDS011;17567;48.382;9.102;2023-04-22T21:42:33;4.63;;;2.40;;
30850;SDS011;17567;48.382;9.102;2023-04-22T21:47:34;3.13;;;2.40;;
30850;SDS011;17567;48.382;9.102;2023-04-22T21:52:34;4.33;;;2.33;;
30850;SDS011;17567;48.382;9.102;2023-04-22T21:57:35;2.90;;;2.17;;
30850;SDS011;17567;48.382;9.102;2023-04-22T22:02:36;5.60;;;2.27;;
30850;SDS011;17567;48.382;9.102;2023-04-22T22:07:36;2.57;;;2.20;;
30850;SDS011;17567;48.382;9.102;2023-04-22T22:12:39;7.70;;;2.47;;
30850;SDS011;17567;48.382;9.102;2023-04-22T22:17:41;5.30;;;2.27;;
30850;SDS011;17567;48.382;9.102;2023-04-22T22:22:42;3.70;;;2.30;;
30850;SDS011;17567;48.382;9.102;2023-04-22T22:27:43;3.40;;;2.40;;
30850;SDS011;17567;48.382;9.102;2023-04-22T22:32:47;2.87;;;2.40;;
30850;SDS011;17567;48.382;9.102;2023-04-22T22:37:48;4.07;;;2.37;;
30850;SDS011;17567;48.382;9.102;2023-04-22T22:42:49;3.87;;;2.30;;
30850;SDS011;17567;48.382;9.102;2023-04-22T22:47:49;5.13;;;2.33;;
30850;SDS011;17567;48.382;9.102;2023-04-22T22:52:50;4.57;;;2.33;;
30850;SDS011;17567;48.382;9.102;2023-04-22T22:57:51;3.80;;;2.50;;
30850;SDS011;17567;48.382;9.102;2023-04-22T23:02:51;2.57;;;2.30;;
30850;SDS011;17567;48.382;9.102;2023-04-22T23:07:52;3.47;;;2.30;;
30850;SDS011;17567;48.382;9.102;2023-04-22T23:12:52;4.03;;;2.37;;
30850;SDS011;17567;48.382;9.102;2023-04-22T23:17:53;4.63;;;2.30;;
30850;SDS011;17567;48.382;9.102;2023-04-22T23:22:54;4.50;;;2.53;;
30850;SDS011;17567;48.382;9.102;2023-04-22T23:27:55;6.53;;;2.70;;
30850;SDS011;17567;48.382;9.102;2023-04-22T23:32:56;5.53;;;2.80;;
30850;SDS011;17567;48.382;9.102;2023-04-22T23:37:59;6.43;;;2.50;;
30850;SDS011;17567;48.382;9.102;2023-04-22T23:43:02;4.70;;;2.80;;
30850;SDS011;17567;48.382;9.102;2023-04-22T23:48:02;4.63;;;2.60;;
30850;SDS011;17567;48.382;9.102;2023-04-22T23:53:03;3.37;;;2.63;;
30850;SDS011;17567;48.382;9.102;2023-04-22T23:58:04;4.20;;;2.53;;
